หน้าหลัก
METAR-TAF:

METAR-TAF

ท่าอากาศยาน :

Rarotonga, หมู่เกาะคุก

ละติจูด: 21-12S, ลองจิจูด: 159-49W, ความสูง: 7 ม.

การสังเกตสภาพอากาศปัจจุบัน

รายงานได้ทำขึ้นเมื่อ 54 นาทีที่แล้ว ณ เวลา 06:00 UTC
ลม 1 นอตจากใต้/ตะวันตกเฉียงใต้
อุณหภูมิ 26°C
ความชื้น 94%
ความกดอากาศ 1015 hPa
ทัศนวิสัย 10 กม. หรือมากกว่า

METAR: NCRG 300600Z AUTO 20001KT 9999 SCT011/// BKN016/// BKN021/// 26/25 Q1015

เวลา: 20:54 (06:54 UTC)

การพยากรณ์

รายงานได้ทำขึ้นเมื่อ 1 ชั่วโมงและ 50 นาทีที่แล้ว ณ เวลา 05:04 UTC
การพยากรณ์มีผลตั้งแต่วันที่ 30 ณ เวลา 06 UTC จนถึงวันที่ 31 ณ เวลา 06 UTC
ลม 3 นอตจากทิศทางซึ่งแปรผันได้
ทัศนวิสัย 10 กม. หรือมากกว่า
มีเมฆเป็นส่วนมากเว้นเป็นระยะที่ความสูง 1200 ฟุต
มีเมฆเป็นส่วนมากเว้นเป็นระยะที่ความสูง 2000 ฟุต
ความน่าจะเป็น 40% :
ชั่วคราว
ตั้งแต่วันที่ 30 ณ เวลา 16 UTC จนถึงวันที่ 31 ณ เวลา 06 UTC
ทัศนวิสัย: 5000 ม.
มีเมฆเป็นส่วนมากเว้นเป็นระยะที่ความสูง 1500 ฟุต
ฝนโปรยปราย,

TAF: NCRG 300504Z 3006/3106 VRB03KT 9999 BKN012 BKN020 PROB40 TEMPO 3016/3106 5000 SHRA BKN015

สังเกตการณ์สภาพอากาศและพยากรณ์อากาศของสนามบินมากกว่า 4000 แห่ง (รายงาน METAR และ TAF).

สถานีที่ดูได้จะแสดงไว้ด้วยจุดสีเหลืองและสีแดงบนแผนที่.

เลื่อนเมาส์ไปเหนือจุดเพื่อดูชื่อสถานี.

แล้วคลิกเพื่อดูสังเกตการณ์และการพยากรณ์สภาพอากาศ.

ในการเปลี่ยนแผนที่: คลิกที่ปุ่มสีเขียวที่มีกากบาทสีดำเพื่อซูมเข้า; ที่ปุ่มสีเขียวที่มีขีดเพื่อซูมออก; หรือที่ลูกศรสีเขียวเพื่อไปยังแผนที่ที่อยู่ติดกัน.


METAR-TAF: